European Causeway — C6RG7 — position and weather

sailwx.info

Track history (hours):
 
Tides and Currents Weather Stations Pressure Air Temp Water Temp Dewpoint Dewpoint Depression Visibility Wind Speed Wind Dir Waves Ship Positions

European Causeway

Operator: P & O Irish Sea

Last reported at 2016-Sep-26 02:27 UTC. Time now 2016-Sep-26 07:00 UTC.
Position N 54°51' W 005°48'.

Length 165 m; draft 5.5 m.

Type: Ship (hazmat cat A). MMSI: 311027000.

Date/timePositionNaut miles runAvg speedWind from/ knotsBaromVisibWave heightAir tempDewpointWater temp
2016-Sep-26 02:27N 54°51' W 005°48'0 0.0
2016-Sep-26 01:30N 54°51' W 005°48'0 0.0
2016-Sep-26 00:30N 54°51' W 005°48'28 9.2
2016-Sep-25 21:29N 54°58' W 005°01'28 6.9
2016-Sep-25 17:26N 54°51' W 005°48'1213.9
2016-Sep-25 16:33N 54°57' W 005°29'1514.7
2016-Sep-25 15:31N 54°59' W 005°03'2 2.3
2016-Sep-25 14:33N 54°58' W 005°01'19 9.4
2016-Sep-25 12:34N 54°55' W 005°33'9 9.1
2016-Sep-25 11:32N 54°51' W 005°48'0 0.0
2016-Sep-25 10:33N 54°51' W 005°48'0 0.0
2016-Sep-25 09:33N 54°51' W 005°48'13 6.5
2016-Sep-25 07:33N 54°57' W 005°28'16 5.1
2016-Sep-25 04:32N 54°58' W 005°01'0 0.0
2016-Sep-25 00:31N 54°58' W 005°01'0 0.0
2016-Sep-24 22:25N 54°58' W 005°01'19 6.7
2016-Sep-24 19:33N 54°55' W 005°34'9 8.0
2016-Sep-24 18:25N 54°51' W 005°48'0 0.0
2016-Sep-24 17:29N 54°51' W 005°48'1414.5
2016-Sep-24 16:33N 54°58' W 005°28'15 7.5
2016-Sep-24 14:33N 54°58' W 005°02'2813.7
2016-Sep-24 12:33N 54°51' W 005°48'2311.3
2016-Sep-24 10:33N 55°01' W 005°13'8 7.2
2016-Sep-24 09:28N 54°58' W 005°01'6 1.1
2016-Sep-24 03:33N 55°02' W 005°09'6 6.0
2016-Sep-24 02:30N 54°58' W 005°01'0 0.0
2016-Sep-24 01:30N 54°58' W 005°01'5 4.6
2016-Sep-24 00:25N 55°02' W 005°07'4 0.9
2016-Sep-23 19:33N 55°01' W 005°14'8 4.1
2016-Sep-23 17:33N 54°58' W 005°01'1110.8
2016-Sep-23 16:33N 54°58' W 005°20'1817.7
2016-Sep-23 15:33N 54°51' W 005°48'14 6.9
2016-Sep-23 13:33N 54°57' W 005°27'14 2.0
2016-Sep-23 06:32N 54°59' W 005°02'3 1.7
2016-Sep-23 04:30N 55°02' W 005°06'1717.7
2016-Sep-23 03:33N 54°54' W 005°32'10 9.3
2016-Sep-23 02:31N 54°51' W 005°48'0 0.0
2016-Sep-23 01:31N 54°51' W 005°48'5 4.9
2016-Sep-23 00:33N 54°53' W 005°41'1716.8
2016-Sep-22 23:33N 55°00' W 005°14'1 0.2
2016-Sep-22 20:16N 55°01' W 005°13'22 2.9
2016-Sep-22 12:33N 54°51' W 005°48'7 0.9
2016-Sep-22 04:32N 54°55' W 005°38'1919.0
2016-Sep-22 03:33N 55°03' W 005°08'1 0.4
2016-Sep-22 00:31N 55°02' W 005°08'1617.0
2016-Sep-21 23:34N 54°55' W 005°33'9 7.7
2016-Sep-21 22:23N 54°51' W 005°48'22 7.7
2016-Sep-21 19:29N 55°02' W 005°14'4 1.4
2016-Sep-21 16:34N 54°59' W 005°19'19 2.6
2016-Sep-21 09:28N 54°51' W 005°48'0 0.1
2016-Sep-21 08:33N 54°51' W 005°48'8 1.5
2016-Sep-21 03:30N 54°55' W 005°37'8 8.1
2016-Sep-21 02:32N 54°51' W 005°48'0 0.0
2016-Sep-20 17:32N 54°51' W 005°48'28 9.3
2016-Sep-20 14:33N 54°58' W 005°01'1515.1
2016-Sep-20 13:33N 54°56' W 005°27'4 1.3
2016-Sep-20 10:33N 54°60' W 005°23'13 6.3
2016-Sep-20 08:31N 54°58' W 005°01'9 9.6
2016-Sep-20 07:33N 54°59' W 005°17'1917.9
2016-Sep-20 06:30N 54°52' W 005°48'27 6.4
2016-Sep-20 02:12N 54°58' W 005°01'20 7.6
2016-Sep-19 23:34N 54°54' W 005°35'15 3.8
2016-Sep-19 19:33N 55°01' W 005°12'7 6.3
2016-Sep-19 18:22N 54°58' W 005°01'11 6.2
2016-Sep-19 16:33N 54°58' W 005°21'17 8.6
2016-Sep-19 14:32N 54°51' W 005°48'1313.3
2016-Sep-19 13:33N 54°57' W 005°28'1514.4
2016-Sep-19 12:32N 54°59' W 005°03'2 1.6
2016-Sep-19 11:33N 54°58' W 005°01'2813.9
2016-Sep-19 09:34N 54°51' W 005°48'15 7.3
2016-Sep-19 07:31N 54°58' W 005°25'1313.6
2016-Sep-19 06:33N 54°58' W 005°02'20 6.6
2016-Sep-19 03:32N 54°54' W 005°36'8 7.4
2016-Sep-19 02:31N 54°51' W 005°48'0 0.0
2016-Sep-19 00:31N 54°51' W 005°48'8 1.6
2016-Sep-18 19:33N 54°54' W 005°35'20 5.1
2016-Sep-18 15:33N 54°58' W 005°01'0 0.0
2016-Sep-18 14:33N 54°58' W 005°01'28 6.5
2016-Sep-18 10:15N 54°51' W 005°48'0 0.0
2016-Sep-18 09:33N 54°51' W 005°48'28 4.0
2016-Sep-18 02:33N 54°58' W 005°01'0 0.0
2016-Sep-18 01:33N 54°58' W 005°01'0 0.0
2016-Sep-18 00:30N 54°58' W 005°01'0 0.0
2016-Sep-17 22:27N 54°58' W 005°01'0 0.0
2016-Sep-17 21:30N 54°58' W 005°01'5 5.3
2016-Sep-17 20:31N 55°02' W 005°07'2016.0
2016-Sep-17 19:15N 54°53' W 005°39'10 1.8
2016-Sep-17 13:33N 54°57' W 005°23'1615.4
2016-Sep-17 12:32N 54°51' W 005°48'16 8.0
2016-Sep-17 10:31N 54°58' W 005°23'1313.4
2016-Sep-17 09:33N 54°58' W 005°01'0 0.0
2016-Sep-17 08:33N 54°58' W 005°01'1111.1
2016-Sep-17 07:34N 54°57' W 005°20'17 8.6
2016-Sep-17 05:33N 54°51' W 005°48'7 7.0
2016-Sep-17 04:33N 54°55' W 005°38'19 4.7
2016-Sep-17 00:31N 55°02' W 005°07'5 0.7
2016-Sep-16 17:33N 54°58' W 005°01'2813.7
2016-Sep-16 15:32N 54°51' W 005°48'28 9.3
2016-Sep-16 12:33N 54°58' W 005°01'28 9.2
2016-Sep-16 09:32N 54°51' W 005°48'15 7.4
2016-Sep-16 07:33N 54°58' W 005°25'6 1.4
2016-Sep-16 03:32N 54°55' W 005°34'9 9.1
2016-Sep-16 02:33N 54°51' W 005°48'  
Track history (hours):
 
Tides and Currents Weather Stations Pressure Air Temp Water Temp Dewpoint Dewpoint Depression Visibility Wind Speed Wind Dir Waves Ship Positions

European Causeway

Operator: P & O Irish Sea

Last reported at 2016-Sep-26 02:27 UTC. Time now 2016-Sep-26 07:00 UTC.
Position N 54°51' W 005°48'.

Length 165 m; draft 5.5 m.

Type: Ship (hazmat cat A). MMSI: 311027000.

Date/timePositionNaut miles runAvg speedWind from/ knotsBaromVisibWave heightAir tempDewpointWater temp
2016-Sep-26 02:27N 54°51' W 005°48'0 0.0
2016-Sep-26 01:30N 54°51' W 005°48'0 0.0
2016-Sep-26 00:30N 54°51' W 005°48'28 9.2
2016-Sep-25 21:29N 54°58' W 005°01'28 6.9
2016-Sep-25 17:26N 54°51' W 005°48'1213.9
2016-Sep-25 16:33N 54°57' W 005°29'1514.7
2016-Sep-25 15:31N 54°59' W 005°03'2 2.3
2016-Sep-25 14:33N 54°58' W 005°01'19 9.4
2016-Sep-25 12:34N 54°55' W 005°33'9 9.1
2016-Sep-25 11:32N 54°51' W 005°48'0 0.0
2016-Sep-25 10:33N 54°51' W 005°48'0 0.0
2016-Sep-25 09:33N 54°51' W 005°48'13 6.5
2016-Sep-25 07:33N 54°57' W 005°28'16 5.1
2016-Sep-25 04:32N 54°58' W 005°01'0 0.0
2016-Sep-25 00:31N 54°58' W 005°01'0 0.0
2016-Sep-24 22:25N 54°58' W 005°01'19 6.7
2016-Sep-24 19:33N 54°55' W 005°34'9 8.0
2016-Sep-24 18:25N 54°51' W 005°48'0 0.0
2016-Sep-24 17:29N 54°51' W 005°48'1414.5
2016-Sep-24 16:33N 54°58' W 005°28'15 7.5
2016-Sep-24 14:33N 54°58' W 005°02'2813.7
2016-Sep-24 12:33N 54°51' W 005°48'2311.3
2016-Sep-24 10:33N 55°01' W 005°13'8 7.2
2016-Sep-24 09:28N 54°58' W 005°01'6 1.1
2016-Sep-24 03:33N 55°02' W 005°09'6 6.0
2016-Sep-24 02:30N 54°58' W 005°01'0 0.0
2016-Sep-24 01:30N 54°58' W 005°01'5 4.6
2016-Sep-24 00:25N 55°02' W 005°07'4 0.9
2016-Sep-23 19:33N 55°01' W 005°14'8 4.1
2016-Sep-23 17:33N 54°58' W 005°01'1110.8
2016-Sep-23 16:33N 54°58' W 005°20'1817.7
2016-Sep-23 15:33N 54°51' W 005°48'14 6.9
2016-Sep-23 13:33N 54°57' W 005°27'14 2.0
2016-Sep-23 06:32N 54°59' W 005°02'3 1.7
2016-Sep-23 04:30N 55°02' W 005°06'1717.7
2016-Sep-23 03:33N 54°54' W 005°32'10 9.3
2016-Sep-23 02:31N 54°51' W 005°48'0 0.0
2016-Sep-23 01:31N 54°51' W 005°48'5 4.9
2016-Sep-23 00:33N 54°53' W 005°41'1716.8
2016-Sep-22 23:33N 55°00' W 005°14'1 0.2
2016-Sep-22 20:16N 55°01' W 005°13'22 2.9
2016-Sep-22 12:33N 54°51' W 005°48'7 0.9
2016-Sep-22 04:32N 54°55' W 005°38'1919.0
2016-Sep-22 03:33N 55°03' W 005°08'1 0.4
2016-Sep-22 00:31N 55°02' W 005°08'1617.0
2016-Sep-21 23:34N 54°55' W 005°33'9 7.7
2016-Sep-21 22:23N 54°51' W 005°48'22 7.7
2016-Sep-21 19:29N 55°02' W 005°14'4 1.4
2016-Sep-21 16:34N 54°59' W 005°19'19 2.6
2016-Sep-21 09:28N 54°51' W 005°48'0 0.1
2016-Sep-21 08:33N 54°51' W 005°48'8 1.5
2016-Sep-21 03:30N 54°55' W 005°37'8 8.1
2016-Sep-21 02:32N 54°51' W 005°48'0 0.0
2016-Sep-20 17:32N 54°51' W 005°48'28 9.3
2016-Sep-20 14:33N 54°58' W 005°01'1515.1
2016-Sep-20 13:33N 54°56' W 005°27'4 1.3
2016-Sep-20 10:33N 54°60' W 005°23'13 6.3
2016-Sep-20 08:31N 54°58' W 005°01'9 9.6
2016-Sep-20 07:33N 54°59' W 005°17'1917.9
2016-Sep-20 06:30N 54°52' W 005°48'27 6.4
2016-Sep-20 02:12N 54°58' W 005°01'20 7.6
2016-Sep-19 23:34N 54°54' W 005°35'15 3.8
2016-Sep-19 19:33N 55°01' W 005°12'7 6.3
2016-Sep-19 18:22N 54°58' W 005°01'11 6.2
2016-Sep-19 16:33N 54°58' W 005°21'17 8.6
2016-Sep-19 14:32N 54°51' W 005°48'1313.3
2016-Sep-19 13:33N 54°57' W 005°28'1514.4
2016-Sep-19 12:32N 54°59' W 005°03'2 1.6
2016-Sep-19 11:33N 54°58' W 005°01'2813.9
2016-Sep-19 09:34N 54°51' W 005°48'15 7.3
2016-Sep-19 07:31N 54°58' W 005°25'1313.6
2016-Sep-19 06:33N 54°58' W 005°02'20 6.6
2016-Sep-19 03:32N 54°54' W 005°36'8 7.4
2016-Sep-19 02:31N 54°51' W 005°48'0 0.0
2016-Sep-19 00:31N 54°51' W 005°48'8 1.6
2016-Sep-18 19:33N 54°54' W 005°35'20 5.1
2016-Sep-18 15:33N 54°58' W 005°01'0 0.0
2016-Sep-18 14:33N 54°58' W 005°01'28 6.5
2016-Sep-18 10:15N 54°51' W 005°48'0 0.0
2016-Sep-18 09:33N 54°51' W 005°48'28 4.0
2016-Sep-18 02:33N 54°58' W 005°01'0 0.0
2016-Sep-18 01:33N 54°58' W 005°01'0 0.0
2016-Sep-18 00:30N 54°58' W 005°01'0 0.0
2016-Sep-17 22:27N 54°58' W 005°01'0 0.0
2016-Sep-17 21:30N 54°58' W 005°01'5 5.3
2016-Sep-17 20:31N 55°02' W 005°07'2016.0
2016-Sep-17 19:15N 54°53' W 005°39'10 1.8
2016-Sep-17 13:33N 54°57' W 005°23'1615.4
2016-Sep-17 12:32N 54°51' W 005°48'16 8.0
2016-Sep-17 10:31N 54°58' W 005°23'1313.4
2016-Sep-17 09:33N 54°58' W 005°01'0 0.0
2016-Sep-17 08:33N 54°58' W 005°01'1111.1
2016-Sep-17 07:34N 54°57' W 005°20'17 8.6
2016-Sep-17 05:33N 54°51' W 005°48'7 7.0
2016-Sep-17 04:33N 54°55' W 005°38'19 4.7
2016-Sep-17 00:31N 55°02' W 005°07'5 0.7
2016-Sep-16 17:33N 54°58' W 005°01'2813.7
2016-Sep-16 15:32N 54°51' W 005°48'28 9.3
2016-Sep-16 12:33N 54°58' W 005°01'28 9.2
2016-Sep-16 09:32N 54°51' W 005°48'15 7.4
2016-Sep-16 07:33N 54°58' W 005°25'6 1.4
2016-Sep-16 03:32N 54°55' W 005°34'9 9.1
2016-Sep-16 02:33N 54°51' W 005°48'  

Dump ship's entire track history